createdAt,value
2018-09-09T00:04:36.992Z,99.90
2018-09-09T00:09:45.782Z,99.90
2018-09-09T00:14:49.467Z,99.90
2018-09-09T00:19:52.977Z,99.90
2018-09-09T00:24:56.255Z,99.90
2018-09-09T00:29:59.534Z,99.90
2018-09-09T00:35:02.824Z,99.90
2018-09-09T00:40:06.220Z,99.90
2018-09-09T00:45:09.493Z,99.90
2018-09-09T00:51:20.921Z,99.90
2018-09-09T00:56:24.178Z,99.90
2018-09-09T01:01:27.479Z,99.90
2018-09-09T01:06:30.769Z,99.90
2018-09-09T01:11:34.055Z,99.90
2018-09-09T01:16:37.313Z,99.90
2018-09-09T01:21:40.572Z,99.90
2018-09-09T01:26:43.831Z,99.90
2018-09-09T01:31:47.662Z,99.90
2018-09-09T01:36:50.940Z,99.90
2018-09-09T01:41:54.195Z,99.90
2018-09-09T01:46:57.449Z,99.90
2018-09-09T01:52:00.748Z,99.90
2018-09-09T01:57:04.019Z,99.90
2018-09-09T02:02:07.271Z,99.90
2018-09-09T02:07:10.531Z,99.90
2018-09-09T02:17:16.804Z,99.90
2018-09-09T02:22:20.072Z,99.90
2018-09-09T02:27:23.347Z,99.90
2018-09-09T02:32:26.639Z,99.90
2018-09-09T02:37:29.914Z,99.90
2018-09-09T02:42:33.201Z,99.90
2018-09-09T02:47:36.494Z,99.90
2018-09-09T02:52:39.761Z,99.90
2018-09-09T02:57:43.028Z,99.90
2018-09-09T03:02:46.277Z,99.90
2018-09-09T03:07:49.528Z,99.90
2018-09-09T03:12:52.792Z,99.90
2018-09-09T03:17:56.073Z,99.90
2018-09-09T03:22:59.440Z,99.90
2018-09-09T03:28:02.715Z,99.90
2018-09-09T03:33:05.993Z,99.90
2018-09-09T03:38:09.267Z,99.90
2018-09-09T03:43:12.552Z,99.90
2018-09-09T03:48:15.841Z,99.90
2018-09-09T03:53:19.096Z,99.90
2018-09-09T03:58:22.376Z,99.90
2018-09-09T04:03:25.665Z,99.90
2018-09-09T04:08:28.945Z,99.90
2018-09-09T04:13:32.220Z,99.90
2018-09-09T04:18:35.498Z,99.90
2018-09-09T04:23:38.826Z,99.90
2018-09-09T04:28:42.097Z,99.90
2018-09-09T04:33:45.369Z,99.90
2018-09-09T04:38:48.624Z,99.90
2018-09-09T04:43:51.896Z,99.90
2018-09-09T04:48:55.160Z,99.90
2018-09-09T04:53:58.453Z,99.90
2018-09-09T04:59:01.757Z,99.90
2018-09-09T05:04:05.077Z,99.90
2018-09-09T05:09:09.109Z,99.90
2018-09-09T05:14:12.400Z,99.90
2018-09-09T05:19:15.682Z,99.90
2018-09-09T05:24:18.958Z,99.90
2018-09-09T05:29:22.244Z,99.90
2018-09-09T05:34:25.499Z,99.90
2018-09-09T05:39:28.788Z,99.90
2018-09-09T05:44:32.525Z,99.90
2018-09-09T05:49:35.774Z,99.90
2018-09-09T05:54:39.065Z,99.90
2018-09-09T06:00:45.416Z,99.90
2018-09-09T06:05:48.697Z,99.90
2018-09-09T06:10:54.776Z,99.90
2018-09-09T06:15:58.060Z,99.90
2018-09-09T06:21:01.322Z,99.90
2018-09-09T06:26:04.576Z,99.90
2018-09-09T06:31:07.848Z,99.90
2018-09-09T06:36:11.117Z,99.90
2018-09-09T06:41:14.433Z,99.90
2018-09-09T06:46:17.756Z,99.90
2018-09-09T06:51:21.034Z,99.90
2018-09-09T06:56:24.262Z,99.90
2018-09-09T07:01:27.530Z,99.90
2018-09-09T07:06:32.525Z,99.90
2018-09-09T07:11:36.032Z,99.90
2018-09-09T07:16:39.128Z,99.90
2018-09-09T07:21:42.393Z,99.90
2018-09-09T07:26:45.640Z,99.90
2018-09-09T07:31:49.917Z,99.90
2018-09-09T07:36:53.251Z,99.90
2018-09-09T07:41:56.572Z,99.90
2018-09-09T07:46:59.854Z,99.90
2018-09-09T07:52:03.137Z,99.90
2018-09-09T07:57:06.914Z,99.90
2018-09-09T08:02:10.187Z,99.90
2018-09-09T08:07:14.275Z,99.90
2018-09-09T08:12:17.533Z,99.90
2018-09-09T08:17:21.067Z,99.90
2018-09-09T08:22:24.957Z,99.90
2018-09-09T08:27:29.727Z,99.90
2018-09-09T08:32:33.044Z,99.90
2018-09-09T08:37:36.304Z,99.90
2018-09-09T08:42:39.564Z,99.90
2018-09-09T08:47:42.846Z,99.90
2018-09-09T08:52:49.250Z,99.90
2018-09-09T08:57:52.521Z,99.90
2018-09-09T09:02:56.488Z,99.90
2018-09-09T09:08:00.405Z,99.90
2018-09-09T09:13:03.512Z,99.90
2018-09-09T09:18:06.834Z,99.90
2018-09-09T09:23:10.084Z,99.90
2018-09-09T09:28:13.367Z,99.90
2018-09-09T09:33:16.688Z,99.90
2018-09-09T09:38:21.216Z,99.90
2018-09-09T09:43:24.646Z,99.90
2018-09-09T09:48:28.017Z,99.90
2018-09-09T09:53:31.483Z,99.90
2018-09-09T09:58:34.703Z,99.90
2018-09-09T10:03:38.053Z,99.80
2018-09-09T10:08:41.448Z,96.50
2018-09-09T10:13:44.728Z,97.30
2018-09-09T10:18:48.081Z,95.90
2018-09-09T10:23:51.446Z,91.30
2018-09-09T10:28:54.844Z,89.50
2018-09-09T10:33:58.259Z,89.00
2018-09-09T10:39:01.557Z,87.80
2018-09-09T10:44:04.812Z,88.50
2018-09-09T10:49:08.080Z,84.40
2018-09-09T10:54:11.349Z,81.70
2018-09-09T10:59:14.744Z,82.00
2018-09-09T11:04:18.013Z,78.20
2018-09-09T11:09:21.267Z,71.60
2018-09-09T11:14:24.545Z,69.50
2018-09-09T11:19:27.806Z,69.60
2018-09-09T11:24:31.172Z,69.80
2018-09-09T11:29:34.412Z,68.80
2018-09-09T11:34:37.840Z,70.00
2018-09-09T11:44:44.120Z,71.10
2018-09-09T11:49:47.460Z,71.30
2018-09-09T11:54:50.798Z,72.20
2018-09-09T11:59:54.076Z,71.40
2018-09-09T12:04:57.354Z,74.10
2018-09-09T12:10:00.604Z,72.80
2018-09-09T12:15:03.871Z,72.20
2018-09-09T12:20:07.164Z,68.30
2018-09-09T12:25:10.436Z,66.80
2018-09-09T12:30:13.681Z,65.70
2018-09-09T12:35:16.988Z,59.90
2018-09-09T12:40:20.257Z,59.20
2018-09-09T12:45:28.678Z,65.10
2018-09-09T12:50:31.947Z,62.90
2018-09-09T12:55:35.217Z,59.90
2018-09-09T13:00:39.592Z,59.70
2018-09-09T13:05:43.684Z,62.00
2018-09-09T13:10:46.942Z,60.20
2018-09-09T13:15:50.979Z,59.30
2018-09-09T13:20:54.488Z,57.50
2018-09-09T13:25:57.777Z,57.30
2018-09-09T13:31:01.013Z,53.30
2018-09-09T13:36:04.297Z,53.70
2018-09-09T13:41:07.536Z,55.20
2018-09-09T13:46:10.778Z,54.90
2018-09-09T13:51:14.043Z,54.40
2018-09-09T13:56:17.299Z,56.20
2018-09-09T14:01:20.584Z,56.70
2018-09-09T14:06:23.890Z,59.50
2018-09-09T14:11:27.148Z,59.10
2018-09-09T14:16:30.412Z,58.00
2018-09-09T14:21:33.706Z,54.60
2018-09-09T14:26:36.996Z,54.80
2018-09-09T14:31:40.261Z,55.60
2018-09-09T14:36:43.684Z,58.70
2018-09-09T14:41:46.936Z,57.20
2018-09-09T14:46:50.403Z,59.80
2018-09-09T14:51:53.853Z,57.20
2018-09-09T14:56:57.155Z,59.10
2018-09-09T15:02:00.741Z,60.30
2018-09-09T15:07:04.054Z,59.10
2018-09-09T15:12:07.373Z,61.40
2018-09-09T15:17:10.621Z,56.40
2018-09-09T15:22:14.153Z,58.80
2018-09-09T15:27:17.430Z,54.60
2018-09-09T15:32:21.799Z,54.70
2018-09-09T15:37:25.168Z,46.30
2018-09-09T15:42:29.365Z,47.60
2018-09-09T15:47:32.710Z,46.70
2018-09-09T15:52:36.240Z,47.50
2018-09-09T15:57:40.398Z,50.80
2018-09-09T16:02:43.696Z,50.20
2018-09-09T16:07:47.080Z,49.60
2018-09-09T16:12:53.831Z,50.50
2018-09-09T16:17:57.044Z,56.30
2018-09-09T16:23:00.809Z,57.60
2018-09-09T16:28:04.169Z,59.20
2018-09-09T16:33:07.445Z,61.40
2018-09-09T16:38:10.712Z,62.70
2018-09-09T16:43:13.985Z,61.60
2018-09-09T16:48:17.710Z,61.00
2018-09-09T16:53:21.657Z,62.50
2018-09-09T16:58:24.954Z,65.00
2018-09-09T17:03:29.903Z,69.20
2018-09-09T17:08:33.995Z,71.60
2018-09-09T17:13:38.202Z,73.20
2018-09-09T17:18:42.931Z,75.20
2018-09-09T17:23:47.189Z,78.00
2018-09-09T17:28:50.822Z,79.50
2018-09-09T17:33:54.779Z,87.10
2018-09-09T17:39:00.336Z,90.20
2018-09-09T17:44:03.725Z,91.00
2018-09-09T17:54:15.864Z,92.00
2018-09-09T18:09:27.069Z,92.70
2018-09-09T18:14:30.982Z,93.00
2018-09-09T18:24:39.472Z,94.20
2018-09-09T18:55:03.047Z,96.30
2018-09-09T19:00:06.625Z,96.60
2018-09-09T19:05:10.933Z,96.60
2018-09-09T19:10:14.850Z,97.00
2018-09-09T19:15:18.336Z,98.40
2018-09-09T19:20:21.933Z,99.90
2018-09-09T19:25:25.433Z,99.90
2018-09-09T19:30:29.129Z,99.90
2018-09-09T19:35:32.612Z,99.90
2018-09-09T19:40:36.199Z,99.90
2018-09-09T19:45:43.148Z,99.90
2018-09-09T19:50:46.637Z,99.90
2018-09-09T19:55:50.042Z,99.90
2018-09-09T20:00:53.372Z,99.90
2018-09-09T20:05:56.671Z,99.90
2018-09-09T20:11:00.053Z,99.90
2018-09-09T20:21:07.201Z,99.90
2018-09-09T20:26:10.842Z,99.90
2018-09-09T20:31:14.600Z,99.90
2018-09-09T20:41:24.942Z,99.90
2018-09-09T20:46:29.252Z,99.90
2018-09-09T20:51:33.364Z,99.90
2018-09-09T20:56:37.632Z,99.90
2018-09-09T21:01:42.069Z,99.90
2018-09-09T21:26:59.843Z,99.90
2018-09-09T21:47:14.313Z,99.90
2018-09-09T21:52:18.487Z,99.90
2018-09-09T22:12:31.046Z,99.90
2018-09-09T22:27:40.344Z,99.90
2018-09-09T22:32:43.616Z,99.90
2018-09-09T22:42:49.892Z,99.90
2018-09-09T22:47:53.206Z,99.90
2018-09-09T22:52:56.468Z,99.90
2018-09-09T23:03:02.750Z,99.90
2018-09-09T23:08:06.156Z,99.90
2018-09-09T23:13:09.429Z,99.90
2018-09-09T23:18:12.690Z,99.90
2018-09-09T23:23:15.944Z,99.90
2018-09-09T23:28:19.214Z,99.90
2018-09-09T23:33:22.499Z,99.90
2018-09-09T23:38:25.764Z,99.90
2018-09-09T23:43:29.008Z,99.90
2018-09-09T23:48:32.269Z,99.90
2018-09-09T23:53:35.559Z,99.90
2018-09-09T23:58:38.833Z,99.90
